sensor_id;sensor_type;location;lat;lon;timestamp;temperature;humidity
21565;DHT22;10943;48.738;9.320;2022-07-10T11:03:21;35.20;59.30
21565;DHT22;10943;48.738;9.320;2022-07-10T11:05:53;35.60;59.90
21565;DHT22;10943;48.738;9.320;2022-07-10T11:08:53;37.70;57.40
21565;DHT22;10943;48.738;9.320;2022-07-10T11:13:58;41.00;53.90
21565;DHT22;10943;48.738;9.320;2022-07-10T11:16:26;41.10;53.40
21565;DHT22;10943;48.738;9.320;2022-07-10T11:18:54;38.40;54.80
21565;DHT22;10943;48.738;9.320;2022-07-10T11:21:23;36.20;57.40
21565;DHT22;10943;48.738;9.320;2022-07-10T11:24:11;36.70;56.60
21565;DHT22;10943;48.738;9.320;2022-07-10T11:27:18;38.20;55.70
21565;DHT22;10943;48.738;9.320;2022-07-10T11:29:58;39.50;54.30
21565;DHT22;10943;48.738;9.320;2022-07-10T11:32:28;39.80;54.30
21565;DHT22;10943;48.738;9.320;2022-07-10T11:34:55;39.60;54.10
21565;DHT22;10943;48.738;9.320;2022-07-10T11:37:24;38.30;55.20
21565;DHT22;10943;48.738;9.320;2022-07-10T11:40:11;37.20;56.60
21565;DHT22;10943;48.738;9.320;2022-07-10T11:42:54;38.00;56.30
21565;DHT22;10943;48.738;9.320;2022-07-10T11:47:59;38.50;55.20
21565;DHT22;10943;48.738;9.320;2022-07-10T11:50:34;39.10;55.40
21565;DHT22;10943;48.738;9.320;2022-07-10T11:53:07;39.90;53.80
21565;DHT22;10943;48.738;9.320;2022-07-10T11:55:34;40.40;52.40
21565;DHT22;10943;48.738;9.320;2022-07-10T11:58:14;41.40;51.50
21565;DHT22;10943;48.738;9.320;2022-07-10T12:03:33;39.70;52.30
21565;DHT22;10943;48.738;9.320;2022-07-10T12:06:03;38.20;54.60
21565;DHT22;10943;48.738;9.320;2022-07-10T12:08:46;37.20;55.00
21565;DHT22;10943;48.738;9.320;2022-07-10T12:11:16;36.30;56.30
21565;DHT22;10943;48.738;9.320;2022-07-10T12:13:48;36.20;55.90
21565;DHT22;10943;48.738;9.320;2022-07-10T12:16:21;35.50;57.30
21565;DHT22;10943;48.738;9.320;2022-07-10T12:18:49;35.80;55.40
21565;DHT22;10943;48.738;9.320;2022-07-10T12:21:17;35.40;56.50
21565;DHT22;10943;48.738;9.320;2022-07-10T12:23:46;35.00;57.30
21565;DHT22;10943;48.738;9.320;2022-07-10T12:26:15;33.90;58.60
21565;DHT22;10943;48.738;9.320;2022-07-10T12:28:51;34.70;58.00
21565;DHT22;10943;48.738;9.320;2022-07-10T12:31:28;35.80;56.30
21565;DHT22;10943;48.738;9.320;2022-07-10T12:34:02;36.40;55.80
21565;DHT22;10943;48.738;9.320;2022-07-10T12:39:21;38.20;53.20
21565;DHT22;10943;48.738;9.320;2022-07-10T12:41:55;37.70;53.30
21565;DHT22;10943;48.738;9.320;2022-07-10T12:44:42;36.50;54.50
21565;DHT22;10943;48.738;9.320;2022-07-10T12:47:17;34.60;56.90
21565;DHT22;10943;48.738;9.320;2022-07-10T12:52:36;30.80;63.00
21565;DHT22;10943;48.738;9.320;2022-07-10T12:55:16;30.10;63.20
21565;DHT22;10943;48.738;9.320;2022-07-10T12:57:58;30.60;63.30
21565;DHT22;10943;48.738;9.320;2022-07-10T13:00:34;32.10;60.10
21565;DHT22;10943;48.738;9.320;2022-07-10T13:03:08;32.80;59.50
21565;DHT22;10943;48.738;9.320;2022-07-10T13:05:41;32.90;59.50
21565;DHT22;10943;48.738;9.320;2022-07-10T13:08:17;32.40;60.90
21565;DHT22;10943;48.738;9.320;2022-07-10T13:13:23;33.60;59.60
21565;DHT22;10943;48.738;9.320;2022-07-10T13:15:51;32.80;59.30
21565;DHT22;10943;48.738;9.320;2022-07-10T13:18:23;32.40;60.50
21565;DHT22;10943;48.738;9.320;2022-07-10T13:20:54;31.80;60.70
21565;DHT22;10943;48.738;9.320;2022-07-10T13:23:29;31.20;61.90
21565;DHT22;10943;48.738;9.320;2022-07-10T13:25:57;31.00;62.60
21565;DHT22;10943;48.738;9.320;2022-07-10T13:28:26;30.70;63.50
21565;DHT22;10943;48.738;9.320;2022-07-10T13:30:54;30.40;63.70
21565;DHT22;10943;48.738;9.320;2022-07-10T13:33:23;29.90;63.50
21565;DHT22;10943;48.738;9.320;2022-07-10T13:35:52;30.10;63.40
21565;DHT22;10943;48.738;9.320;2022-07-10T13:38:20;29.50;64.00
21565;DHT22;10943;48.738;9.320;2022-07-10T13:40:48;29.30;64.90
21565;DHT22;10943;48.738;9.320;2022-07-10T13:43:15;28.70;66.00
21565;DHT22;10943;48.738;9.320;2022-07-10T13:45:48;28.80;65.70
21565;DHT22;10943;48.738;9.320;2022-07-10T13:48:16;29.00;65.20
21565;DHT22;10943;48.738;9.320;2022-07-10T13:50:44;29.10;64.70
21565;DHT22;10943;48.738;9.320;2022-07-10T13:53:15;29.10;64.70
21565;DHT22;10943;48.738;9.320;2022-07-10T13:55:45;29.40;64.10
21565;DHT22;10943;48.738;9.320;2022-07-10T13:58:14;29.40;64.60
21565;DHT22;10943;48.738;9.320;2022-07-10T14:00:44;28.80;66.70
21565;DHT22;10943;48.738;9.320;2022-07-10T14:03:13;28.30;67.00
21565;DHT22;10943;48.738;9.320;2022-07-10T14:05:40;28.40;66.90
21565;DHT22;10943;48.738;9.320;2022-07-10T14:08:11;28.20;67.10
21565;DHT22;10943;48.738;9.320;2022-07-10T14:10:38;28.20;67.50
21565;DHT22;10943;48.738;9.320;2022-07-10T14:13:07;28.50;66.90
21565;DHT22;10943;48.738;9.320;2022-07-10T14:15:39;28.70;66.50
21565;DHT22;10943;48.738;9.320;2022-07-10T14:18:07;28.80;65.80
21565;DHT22;10943;48.738;9.320;2022-07-10T14:20:35;27.90;67.80
21565;DHT22;10943;48.738;9.320;2022-07-10T14:23:21;26.80;69.90
21565;DHT22;10943;48.738;9.320;2022-07-10T14:25:50;26.90;70.00
21565;DHT22;10943;48.738;9.320;2022-07-10T14:28:20;26.80;69.90
21565;DHT22;10943;48.738;9.320;2022-07-10T14:30:48;26.60;70.40
21565;DHT22;10943;48.738;9.320;2022-07-10T14:33:20;27.00;69.40
21565;DHT22;10943;48.738;9.320;2022-07-10T14:35:50;27.60;68.30
21565;DHT22;10943;48.738;9.320;2022-07-10T14:38:19;27.60;68.00
21565;DHT22;10943;48.738;9.320;2022-07-10T14:40:46;27.40;68.10
21565;DHT22;10943;48.738;9.320;2022-07-10T14:43:15;27.70;68.40
21565;DHT22;10943;48.738;9.320;2022-07-10T14:45:43;27.90;68.30
21565;DHT22;10943;48.738;9.320;2022-07-10T14:48:18;27.70;67.60
21565;DHT22;10943;48.738;9.320;2022-07-10T14:50:47;27.80;67.80
21565;DHT22;10943;48.738;9.320;2022-07-10T14:53:15;27.60;67.60
21565;DHT22;10943;48.738;9.320;2022-07-10T14:55:46;27.80;67.90
21565;DHT22;10943;48.738;9.320;2022-07-10T14:58:15;28.30;66.60
21565;DHT22;10943;48.738;9.320;2022-07-10T15:00:44;28.50;66.30
21565;DHT22;10943;48.738;9.320;2022-07-10T15:03:11;28.30;66.20
21565;DHT22;10943;48.738;9.320;2022-07-10T15:05:40;27.80;66.80
21565;DHT22;10943;48.738;9.320;2022-07-10T15:08:08;27.50;68.20
21565;DHT22;10943;48.738;9.320;2022-07-10T15:10:35;27.00;69.00
21565;DHT22;10943;48.738;9.320;2022-07-10T15:13:03;27.10;68.70
21565;DHT22;10943;48.738;9.320;2022-07-10T15:15:33;27.40;68.10
21565;DHT22;10943;48.738;9.320;2022-07-10T15:18:00;27.50;67.90
21565;DHT22;10943;48.738;9.320;2022-07-10T15:20:28;27.70;67.40
21565;DHT22;10943;48.738;9.320;2022-07-10T15:22:57;27.70;67.10
21565;DHT22;10943;48.738;9.320;2022-07-10T15:25:25;27.80;66.90
21565;DHT22;10943;48.738;9.320;2022-07-10T15:27:53;27.70;66.50
21565;DHT22;10943;48.738;9.320;2022-07-10T15:30:20;27.60;67.00
21565;DHT22;10943;48.738;9.320;2022-07-10T15:32:49;27.70;67.00
21565;DHT22;10943;48.738;9.320;2022-07-10T15:35:16;27.90;66.20
21565;DHT22;10943;48.738;9.320;2022-07-10T15:37:44;26.80;67.00
21565;DHT22;10943;48.738;9.320;2022-07-10T15:40:12;26.00;69.00
21565;DHT22;10943;48.738;9.320;2022-07-10T15:42:39;25.50;69.80
21565;DHT22;10943;48.738;9.320;2022-07-10T15:45:07;25.90;68.70
21565;DHT22;10943;48.738;9.320;2022-07-10T15:47:40;26.20;68.00
21565;DHT22;10943;48.738;9.320;2022-07-10T15:50:10;26.90;68.00
21565;DHT22;10943;48.738;9.320;2022-07-10T15:52:39;27.30;67.50
21565;DHT22;10943;48.738;9.320;2022-07-10T15:55:09;27.20;67.00
21565;DHT22;10943;48.738;9.320;2022-07-10T15:57:40;27.30;67.30
21565;DHT22;10943;48.738;9.320;2022-07-10T16:00:09;27.50;66.40
21565;DHT22;10943;48.738;9.320;2022-07-10T16:02:39;27.60;66.00
21565;DHT22;10943;48.738;9.320;2022-07-10T16:05:07;27.50;65.80
21565;DHT22;10943;48.738;9.320;2022-07-10T16:07:36;27.40;66.50
21565;DHT22;10943;48.738;9.320;2022-07-10T16:10:04;27.40;66.50
21565;DHT22;10943;48.738;9.320;2022-07-10T16:12:35;27.20;66.40
21565;DHT22;10943;48.738;9.320;2022-07-10T16:15:07;27.30;67.00
21565;DHT22;10943;48.738;9.320;2022-07-10T16:17:42;27.60;66.40
21565;DHT22;10943;48.738;9.320;2022-07-10T16:20:12;27.60;66.20
21565;DHT22;10943;48.738;9.320;2022-07-10T16:22:39;27.60;66.40
21565;DHT22;10943;48.738;9.320;2022-07-10T16:25:09;27.50;66.60
21565;DHT22;10943;48.738;9.320;2022-07-10T16:27:57;27.40;67.30
21565;DHT22;10943;48.738;9.320;2022-07-10T16:30:24;27.00;67.50
21565;DHT22;10943;48.738;9.320;2022-07-10T16:32:55;27.10;67.50
21565;DHT22;10943;48.738;9.320;2022-07-10T16:35:28;26.60;68.60
21565;DHT22;10943;48.738;9.320;2022-07-10T16:37:57;26.60;68.60
21565;DHT22;10943;48.738;9.320;2022-07-10T16:40:26;26.80;67.90
21565;DHT22;10943;48.738;9.320;2022-07-10T16:42:53;27.00;68.00
21565;DHT22;10943;48.738;9.320;2022-07-10T16:45:20;27.10;67.50
21565;DHT22;10943;48.738;9.320;2022-07-10T16:47:48;27.20;67.30
21565;DHT22;10943;48.738;9.320;2022-07-10T16:50:18;27.40;67.00
21565;DHT22;10943;48.738;9.320;2022-07-10T16:52:46;26.60;68.10
21565;DHT22;10943;48.738;9.320;2022-07-10T16:55:17;26.80;68.90
21565;DHT22;10943;48.738;9.320;2022-07-10T16:57:47;27.00;67.90
21565;DHT22;10943;48.738;9.320;2022-07-10T17:00:16;27.00;67.20
21565;DHT22;10943;48.738;9.320;2022-07-10T17:02:44;26.80;67.70
21565;DHT22;10943;48.738;9.320;2022-07-10T17:05:13;26.80;67.90
21565;DHT22;10943;48.738;9.320;2022-07-10T17:07:42;26.90;67.50
21565;DHT22;10943;48.738;9.320;2022-07-10T17:10:11;27.10;67.50
21565;DHT22;10943;48.738;9.320;2022-07-10T17:12:40;27.20;67.30
21565;DHT22;10943;48.738;9.320;2022-07-10T17:15:11;27.30;67.10
21565;DHT22;10943;48.738;9.320;2022-07-10T17:17:44;26.70;68.20
21565;DHT22;10943;48.738;9.320;2022-07-10T17:20:13;26.50;68.80
21565;DHT22;10943;48.738;9.320;2022-07-10T17:22:41;26.20;69.50
21565;DHT22;10943;48.738;9.320;2022-07-10T17:25:10;26.20;70.00
21565;DHT22;10943;48.738;9.320;2022-07-10T17:27:37;26.00;69.80
21565;DHT22;10943;48.738;9.320;2022-07-10T17:30:05;25.90;70.10
21565;DHT22;10943;48.738;9.320;2022-07-10T17:32:33;25.80;70.70
21565;DHT22;10943;48.738;9.320;2022-07-10T17:35:01;25.80;71.00
21565;DHT22;10943;48.738;9.320;2022-07-10T17:37:33;25.80;71.50
21565;DHT22;10943;48.738;9.320;2022-07-10T17:40:02;25.70;71.50
21565;DHT22;10943;48.738;9.320;2022-07-10T17:42:31;25.90;71.20
21565;DHT22;10943;48.738;9.320;2022-07-10T17:44:58;25.80;71.00
21565;DHT22;10943;48.738;9.320;2022-07-10T17:47:26;25.50;71.60
21565;DHT22;10943;48.738;9.320;2022-07-10T17:49:54;25.30;72.00
21565;DHT22;10943;48.738;9.320;2022-07-10T17:52:23;25.40;72.00
21565;DHT22;10943;48.738;9.320;2022-07-10T17:54:52;25.70;71.50
21565;DHT22;10943;48.738;9.320;2022-07-10T17:57:20;26.00;71.50
21565;DHT22;10943;48.738;9.320;2022-07-10T17:59:47;26.20;71.20
21565;DHT22;10943;48.738;9.320;2022-07-10T18:02:16;26.10;71.40
21565;DHT22;10943;48.738;9.320;2022-07-10T18:04:43;25.80;72.00
21565;DHT22;10943;48.738;9.320;2022-07-10T18:07:16;25.70;71.80
21565;DHT22;10943;48.738;9.320;2022-07-10T18:09:44;25.50;72.20
21565;DHT22;10943;48.738;9.320;2022-07-10T18:12:12;25.30;72.60
21565;DHT22;10943;48.738;9.320;2022-07-10T18:14:40;25.10;73.40
21565;DHT22;10943;48.738;9.320;2022-07-10T18:17:09;25.00;73.80
21565;DHT22;10943;48.738;9.320;2022-07-10T18:19:36;24.90;74.40
21565;DHT22;10943;48.738;9.320;2022-07-10T18:22:03;24.90;74.70
21565;DHT22;10943;48.738;9.320;2022-07-10T18:24:31;24.70;74.80
21565;DHT22;10943;48.738;9.320;2022-07-10T18:26:59;24.70;75.40
21565;DHT22;10943;48.738;9.320;2022-07-10T18:29:28;24.50;75.90
21565;DHT22;10943;48.738;9.320;2022-07-10T18:31:56;24.50;76.00
21565;DHT22;10943;48.738;9.320;2022-07-10T18:34:24;24.40;76.30
21565;DHT22;10943;48.738;9.320;2022-07-10T18:37:07;24.30;76.60
21565;DHT22;10943;48.738;9.320;2022-07-10T18:39:35;24.30;77.00
21565;DHT22;10943;48.738;9.320;2022-07-10T18:42:02;23.90;77.60
21565;DHT22;10943;48.738;9.320;2022-07-10T18:44:32;23.80;78.40
21565;DHT22;10943;48.738;9.320;2022-07-10T18:46:59;23.80;78.40
21565;DHT22;10943;48.738;9.320;2022-07-10T18:49:26;23.90;78.90
21565;DHT22;10943;48.738;9.320;2022-07-10T18:51:56;23.70;79.20
21565;DHT22;10943;48.738;9.320;2022-07-10T18:54:24;23.70;79.30
21565;DHT22;10943;48.738;9.320;2022-07-10T18:57:17;23.50;79.70
21565;DHT22;10943;48.738;9.320;2022-07-10T18:59:44;23.40;80.30
21565;DHT22;10943;48.738;9.320;2022-07-10T19:02:11;23.40;80.90
21565;DHT22;10943;48.738;9.320;2022-07-10T19:04:51;23.30;81.20
21565;DHT22;10943;48.738;9.320;2022-07-10T19:07:19;23.10;81.70
21565;DHT22;10943;48.738;9.320;2022-07-10T19:09:47;23.00;82.10
21565;DHT22;10943;48.738;9.320;2022-07-10T19:12:14;22.90;82.30
21565;DHT22;10943;48.738;9.320;2022-07-10T19:14:41;23.00;82.60
21565;DHT22;10943;48.738;9.320;2022-07-10T19:17:08;22.90;82.80
21565;DHT22;10943;48.738;9.320;2022-07-10T19:19:36;22.80;83.50
21565;DHT22;10943;48.738;9.320;2022-07-10T19:22:07;22.80;83.80
21565;DHT22;10943;48.738;9.320;2022-07-10T19:24:34;22.80;84.10
21565;DHT22;10943;48.738;9.320;2022-07-10T19:27:01;22.80;84.00
21565;DHT22;10943;48.738;9.320;2022-07-10T19:29:29;22.90;83.90
21565;DHT22;10943;48.738;9.320;2022-07-10T19:31:57;22.90;83.40
21565;DHT22;10943;48.738;9.320;2022-07-10T19:34:24;22.80;83.90
21565;DHT22;10943;48.738;9.320;2022-07-10T19:36:52;22.70;83.70
21565;DHT22;10943;48.738;9.320;2022-07-10T19:39:20;22.70;84.20
21565;DHT22;10943;48.738;9.320;2022-07-10T19:41:49;22.70;84.20
21565;DHT22;10943;48.738;9.320;2022-07-10T19:44:16;22.60;84.30
21565;DHT22;10943;48.738;9.320;2022-07-10T19:46:44;22.60;85.70
21565;DHT22;10943;48.738;9.320;2022-07-10T19:49:12;22.40;86.10
21565;DHT22;10943;48.738;9.320;2022-07-10T19:51:46;22.10;87.00
21565;DHT22;10943;48.738;9.320;2022-07-10T19:54:15;22.00;87.70
21565;DHT22;10943;48.738;9.320;2022-07-10T19:56:44;21.90;88.10
21565;DHT22;10943;48.738;9.320;2022-07-10T19:59:11;21.80;88.50
21565;DHT22;10943;48.738;9.320;2022-07-10T20:01:39;21.70;89.00
21565;DHT22;10943;48.738;9.320;2022-07-10T20:04:08;21.50;89.60
21565;DHT22;10943;48.738;9.320;2022-07-10T20:06:38;21.30;90.30
21565;DHT22;10943;48.738;9.320;2022-07-10T20:09:06;21.40;90.40
21565;DHT22;10943;48.738;9.320;2022-07-10T20:11:34;21.40;90.80
21565;DHT22;10943;48.738;9.320;2022-07-10T20:14:04;21.40;90.90
21565;DHT22;10943;48.738;9.320;2022-07-10T20:16:31;21.10;91.10
21565;DHT22;10943;48.738;9.320;2022-07-10T20:18:58;20.90;91.70
21565;DHT22;10943;48.738;9.320;2022-07-10T20:21:26;20.80;92.20
21565;DHT22;10943;48.738;9.320;2022-07-10T20:23:53;20.70;92.30
21565;DHT22;10943;48.738;9.320;2022-07-10T20:26:21;20.70;92.20
21565;DHT22;10943;48.738;9.320;2022-07-10T20:28:49;20.70;92.60
21565;DHT22;10943;48.738;9.320;2022-07-10T20:31:23;20.80;92.50
21565;DHT22;10943;48.738;9.320;2022-07-10T20:33:50;20.70;92.40
21565;DHT22;10943;48.738;9.320;2022-07-10T20:36:17;20.50;93.00
21565;DHT22;10943;48.738;9.320;2022-07-10T20:39:03;20.40;93.10
21565;DHT22;10943;48.738;9.320;2022-07-10T20:41:31;20.30;93.30
21565;DHT22;10943;48.738;9.320;2022-07-10T20:43:58;20.30;93.70
21565;DHT22;10943;48.738;9.320;2022-07-10T20:46:26;20.20;93.60
21565;DHT22;10943;48.738;9.320;2022-07-10T20:48:55;20.20;94.10
21565;DHT22;10943;48.738;9.320;2022-07-10T20:51:27;20.30;94.00
21565;DHT22;10943;48.738;9.320;2022-07-10T20:54:01;20.30;94.10
21565;DHT22;10943;48.738;9.320;2022-07-10T20:56:31;20.20;94.10
21565;DHT22;10943;48.738;9.320;2022-07-10T20:58:58;20.00;94.30
21565;DHT22;10943;48.738;9.320;2022-07-10T21:01:25;19.90;94.80
21565;DHT22;10943;48.738;9.320;2022-07-10T21:03:56;19.80;95.10
21565;DHT22;10943;48.738;9.320;2022-07-10T21:06:25;19.60;95.40
21565;DHT22;10943;48.738;9.320;2022-07-10T21:08:53;19.50;95.70
21565;DHT22;10943;48.738;9.320;2022-07-10T21:11:20;19.60;96.00
21565;DHT22;10943;48.738;9.320;2022-07-10T21:13:48;19.50;95.80
21565;DHT22;10943;48.738;9.320;2022-07-10T21:16:15;19.60;96.10
21565;DHT22;10943;48.738;9.320;2022-07-10T21:18:42;19.80;96.00
21565;DHT22;10943;48.738;9.320;2022-07-10T21:21:09;20.00;96.00
21565;DHT22;10943;48.738;9.320;2022-07-10T21:23:37;19.80;96.00
21565;DHT22;10943;48.738;9.320;2022-07-10T21:26:08;19.80;96.30
21565;DHT22;10943;48.738;9.320;2022-07-10T21:28:35;19.80;96.40
21565;DHT22;10943;48.738;9.320;2022-07-10T21:31:06;19.80;96.50
21565;DHT22;10943;48.738;9.320;2022-07-10T21:33:37;19.80;96.70
21565;DHT22;10943;48.738;9.320;2022-07-10T21:36:05;19.90;96.60
21565;DHT22;10943;48.738;9.320;2022-07-10T21:38:32;19.80;96.70
21565;DHT22;10943;48.738;9.320;2022-07-10T21:41:00;19.50;97.20
21565;DHT22;10943;48.738;9.320;2022-07-10T21:43:32;19.30;97.60
21565;DHT22;10943;48.738;9.320;2022-07-10T21:45:59;19.30;97.70
21565;DHT22;10943;48.738;9.320;2022-07-10T21:48:27;19.50;97.90
21565;DHT22;10943;48.738;9.320;2022-07-10T21:50:55;19.60;97.90
21565;DHT22;10943;48.738;9.320;2022-07-10T21:53:22;19.60;97.70
21565;DHT22;10943;48.738;9.320;2022-07-10T21:55:49;19.60;98.00
21565;DHT22;10943;48.738;9.320;2022-07-10T21:58:16;19.60;98.10
21565;DHT22;10943;48.738;9.320;2022-07-10T22:00:44;19.40;98.20
21565;DHT22;10943;48.738;9.320;2022-07-10T22:03:12;19.30;97.90
21565;DHT22;10943;48.738;9.320;2022-07-10T22:05:39;19.40;96.50
21565;DHT22;10943;48.738;9.320;2022-07-10T22:08:06;19.50;97.40
21565;DHT22;10943;48.738;9.320;2022-07-10T22:10:34;19.30;98.70
21565;DHT22;10943;48.738;9.320;2022-07-10T22:13:01;19.30;99.10
21565;DHT22;10943;48.738;9.320;2022-07-10T22:15:29;19.30;99.30
21565;DHT22;10943;48.738;9.320;2022-07-10T22:17:56;19.50;99.40
21565;DHT22;10943;48.738;9.320;2022-07-10T22:20:24;19.60;99.30
21565;DHT22;10943;48.738;9.320;2022-07-10T22:22:51;19.60;99.50
21565;DHT22;10943;48.738;9.320;2022-07-10T22:25:18;19.70;99.60
21565;DHT22;10943;48.738;9.320;2022-07-10T22:27:48;19.60;99.40
21565;DHT22;10943;48.738;9.320;2022-07-10T22:30:16;19.50;99.60
21565;DHT22;10943;48.738;9.320;2022-07-10T22:33:04;19.40;99.90
21565;DHT22;10943;48.738;9.320;2022-07-10T22:35:32;19.50;99.90
21565;DHT22;10943;48.738;9.320;2022-07-10T22:38:00;19.50;99.90
21565;DHT22;10943;48.738;9.320;2022-07-10T22:40:27;19.50;99.90
21565;DHT22;10943;48.738;9.320;2022-07-10T22:42:57;19.40;99.90
21565;DHT22;10943;48.738;9.320;2022-07-10T22:45:30;19.40;99.90
21565;DHT22;10943;48.738;9.320;2022-07-10T22:47:57;19.20;99.90
21565;DHT22;10943;48.738;9.320;2022-07-10T22:50:27;19.00;99.90
21565;DHT22;10943;48.738;9.320;2022-07-10T22:53:02;18.80;99.90
21565;DHT22;10943;48.738;9.320;2022-07-10T22:55:29;18.80;99.90
21565;DHT22;10943;48.738;9.320;2022-07-10T22:57:57;18.70;99.90
21565;DHT22;10943;48.738;9.320;2022-07-10T23:00:25;18.80;99.90
21565;DHT22;10943;48.738;9.320;2022-07-10T23:02:52;18.80;99.90
21565;DHT22;10943;48.738;9.320;2022-07-10T23:05:21;18.80;99.90
21565;DHT22;10943;48.738;9.320;2022-07-10T23:07:51;18.90;99.90
21565;DHT22;10943;48.738;9.320;2022-07-10T23:10:19;19.00;99.90
21565;DHT22;10943;48.738;9.320;2022-07-10T23:12:51;19.10;99.90
21565;DHT22;10943;48.738;9.320;2022-07-10T23:15:20;19.20;99.90
21565;DHT22;10943;48.738;9.320;2022-07-10T23:17:48;19.20;99.90
21565;DHT22;10943;48.738;9.320;2022-07-10T23:20:16;19.20;99.90
21565;DHT22;10943;48.738;9.320;2022-07-10T23:22:44;19.20;99.90
21565;DHT22;10943;48.738;9.320;2022-07-10T23:25:14;19.20;99.90
21565;DHT22;10943;48.738;9.320;2022-07-10T23:27:42;19.20;99.90
21565;DHT22;10943;48.738;9.320;2022-07-10T23:30:11;19.20;99.90
21565;DHT22;10943;48.738;9.320;2022-07-10T23:32:38;19.10;99.90
21565;DHT22;10943;48.738;9.320;2022-07-10T23:35:08;19.10;99.90
21565;DHT22;10943;48.738;9.320;2022-07-10T23:37:40;19.10;99.90
21565;DHT22;10943;48.738;9.320;2022-07-10T23:40:07;19.10;99.90
21565;DHT22;10943;48.738;9.320;2022-07-10T23:42:35;19.10;99.90
21565;DHT22;10943;48.738;9.320;2022-07-10T23:45:04;18.80;99.90
21565;DHT22;10943;48.738;9.320;2022-07-10T23:47:32;18.80;99.90
21565;DHT22;10943;48.738;9.320;2022-07-10T23:50:00;18.80;99.90
21565;DHT22;10943;48.738;9.320;2022-07-10T23:52:39;18.80;99.90
21565;DHT22;10943;48.738;9.320;2022-07-10T23:55:11;18.90;99.90
21565;DHT22;10943;48.738;9.320;2022-07-10T23:57:40;18.80;99.90
